createdAt,value
2023-04-15T00:01:37.298Z,15.47
2023-04-15T00:04:05.123Z,13.30
2023-04-15T00:06:31.968Z,17.03
2023-04-15T00:08:59.237Z,16.40
2023-04-15T00:11:26.341Z,18.37
2023-04-15T00:13:53.391Z,14.60
2023-04-15T00:16:20.457Z,14.23
2023-04-15T00:18:47.539Z,15.83
2023-04-15T00:21:14.383Z,15.17
2023-04-15T00:23:41.659Z,15.40
2023-04-15T00:26:08.712Z,15.93
2023-04-15T00:28:35.746Z,16.73
2023-04-15T00:31:03.566Z,15.23
2023-04-15T00:33:30.612Z,17.80
2023-04-15T00:35:57.638Z,16.87
2023-04-15T00:38:24.630Z,21.73
2023-04-15T00:40:51.812Z,16.73
2023-04-15T00:43:18.978Z,18.63
2023-04-15T00:45:47.157Z,23.27
2023-04-15T00:48:14.405Z,16.23
2023-04-15T00:50:41.199Z,19.10
2023-04-15T00:53:08.401Z,19.40
2023-04-15T00:55:36.224Z,20.23
2023-04-15T00:58:03.353Z,18.73
2023-04-15T01:00:31.234Z,21.30
2023-04-15T01:02:59.174Z,16.40
2023-04-15T01:05:27.099Z,16.50
2023-04-15T01:07:55.323Z,23.10
2023-04-15T01:10:22.186Z,18.50
2023-04-15T01:12:49.453Z,20.97
2023-04-15T01:15:16.355Z,20.87
2023-04-15T01:17:43.502Z,22.07
2023-04-15T01:20:10.484Z,21.93
2023-04-15T01:22:39.477Z,17.57
2023-04-15T01:25:17.598Z,20.93
2023-04-15T01:27:45.354Z,17.00
2023-04-15T01:30:12.226Z,18.60
2023-04-15T01:32:39.253Z,18.57
2023-04-15T01:35:06.440Z,19.03
2023-04-15T01:37:33.951Z,18.23
2023-04-15T01:40:00.743Z,20.83
2023-04-15T01:42:28.344Z,18.50
2023-04-15T01:44:55.144Z,20.97
2023-04-15T01:47:22.499Z,20.37
2023-04-15T01:49:49.386Z,18.70
2023-04-15T01:52:16.466Z,20.10
2023-04-15T01:54:43.349Z,18.13
2023-04-15T01:57:12.383Z,22.07
2023-04-15T01:59:39.155Z,17.17
2023-04-15T02:02:06.180Z,20.47
2023-04-15T02:04:34.220Z,20.93
2023-04-15T02:07:01.701Z,18.27
2023-04-15T02:09:28.818Z,18.37
2023-04-15T02:11:56.225Z,22.77
2023-04-15T02:14:24.222Z,18.03
2023-04-15T02:16:51.542Z,17.80
2023-04-15T02:19:18.462Z,19.53
2023-04-15T02:21:45.569Z,17.10
2023-04-15T02:24:12.426Z,19.67
2023-04-15T02:26:41.596Z,18.67
2023-04-15T02:29:08.589Z,16.80
2023-04-15T02:31:40.395Z,18.73
2023-04-15T02:34:08.168Z,18.73
2023-04-15T02:36:35.281Z,17.10
2023-04-15T02:39:02.408Z,18.07
2023-04-15T02:41:30.058Z,18.80
2023-04-15T02:43:57.663Z,18.23
2023-04-15T02:46:24.934Z,16.60
2023-04-15T02:48:53.372Z,17.07
2023-04-15T02:51:22.878Z,16.27
2023-04-15T02:53:50.554Z,16.63
2023-04-15T02:56:19.375Z,17.57
2023-04-15T02:58:46.528Z,18.47
2023-04-15T03:01:13.791Z,17.77
2023-04-15T03:03:41.627Z,17.65
2023-04-15T03:06:09.131Z,21.67
2023-04-15T03:08:36.547Z,16.67
2023-04-15T03:11:04.544Z,16.42
2023-04-15T03:13:32.321Z,17.77
2023-04-15T03:16:03.510Z,16.83
2023-04-15T03:18:32.009Z,19.98
2023-04-15T03:21:02.873Z,17.60
2023-04-15T03:23:32.409Z,15.70
2023-04-15T03:26:02.486Z,17.55
2023-04-15T03:28:31.106Z,14.23
2023-04-15T03:30:59.739Z,17.43
2023-04-15T03:33:26.512Z,16.90
2023-04-15T03:35:53.580Z,16.70
2023-04-15T03:38:20.635Z,15.37
2023-04-15T03:40:47.771Z,16.83
2023-04-15T03:43:14.563Z,15.83
2023-04-15T03:45:41.616Z,16.67
2023-04-15T03:48:17.363Z,15.10
2023-04-15T03:50:45.275Z,19.23
2023-04-15T03:53:12.191Z,16.37
2023-04-15T03:55:39.220Z,14.68
2023-04-15T03:58:06.057Z,15.80
2023-04-15T04:00:33.217Z,14.32
2023-04-15T04:03:00.097Z,16.73
2023-04-15T04:05:27.351Z,14.50
2023-04-15T04:07:54.065Z,16.30
2023-04-15T04:10:21.159Z,16.37
2023-04-15T04:12:47.930Z,14.90
2023-04-15T04:15:15.039Z,17.07
2023-04-15T04:17:42.314Z,23.23
2023-04-15T04:20:09.768Z,13.97
2023-04-15T04:22:40.532Z,15.27
2023-04-15T04:25:10.096Z,13.55
2023-04-15T04:27:37.035Z,12.27
2023-04-15T04:30:05.452Z,15.13
2023-04-15T04:32:32.412Z,16.03
2023-04-15T04:34:59.412Z,16.10
2023-04-15T04:37:26.592Z,14.83
2023-04-15T04:39:53.780Z,15.68
2023-04-15T04:42:20.478Z,16.13
2023-04-15T04:44:47.762Z,14.07
2023-04-15T04:47:14.465Z,14.70
2023-04-15T04:49:41.555Z,12.60
2023-04-15T04:52:08.398Z,14.63
2023-04-15T04:54:35.854Z,14.47
2023-04-15T04:57:03.044Z,18.90
2023-04-15T04:59:30.054Z,16.90
2023-04-15T05:01:57.118Z,16.00
2023-04-15T05:04:24.387Z,14.50
2023-04-15T05:06:51.783Z,19.37
2023-04-15T05:09:19.130Z,14.07
2023-04-15T05:11:46.068Z,15.25
2023-04-15T05:14:13.110Z,14.38
2023-04-15T05:16:40.077Z,16.73
2023-04-15T05:19:07.891Z,16.07
2023-04-15T05:21:34.697Z,14.82
2023-04-15T05:24:01.844Z,21.83
2023-04-15T05:26:28.998Z,17.92
2023-04-15T05:28:56.084Z,18.48
2023-04-15T05:31:22.840Z,15.98
2023-04-15T05:33:49.890Z,15.85
2023-04-15T05:36:16.617Z,15.82
2023-04-15T05:38:43.615Z,15.60
2023-04-15T05:41:10.384Z,19.83
2023-04-15T05:43:37.409Z,20.48
2023-04-15T05:46:04.294Z,15.50
2023-04-15T05:48:31.371Z,16.15
2023-04-15T05:50:58.458Z,19.02
2023-04-15T05:53:25.533Z,15.20
2023-04-15T05:55:52.405Z,17.83
2023-04-15T05:58:19.520Z,18.77
2023-04-15T06:00:46.443Z,18.70
2023-04-15T06:03:13.650Z,21.97
2023-04-15T06:05:40.779Z,24.25
2023-04-15T06:08:08.375Z,20.97
2023-04-15T06:10:36.775Z,20.88
2023-04-15T06:13:04.343Z,20.98
2023-04-15T06:15:31.744Z,24.23
2023-04-15T06:17:59.354Z,23.07
2023-04-15T06:20:26.234Z,23.25
2023-04-15T06:22:53.445Z,22.37
2023-04-15T06:25:20.350Z,23.50
2023-04-15T06:27:48.355Z,21.93
2023-04-15T06:30:15.214Z,22.73
2023-04-15T06:32:42.291Z,27.70
2023-04-15T06:35:09.559Z,25.67
2023-04-15T06:37:36.738Z,26.33
2023-04-15T06:40:05.195Z,25.97
2023-04-15T06:42:32.720Z,29.67
2023-04-15T06:44:59.494Z,30.47
2023-04-15T06:47:26.740Z,24.20
2023-04-15T06:49:53.474Z,26.83
2023-04-15T06:52:20.570Z,24.10
2023-04-15T06:54:47.357Z,23.60
2023-04-15T06:57:14.389Z,25.83
2023-04-15T06:59:41.155Z,23.17
2023-04-15T07:02:12.428Z,23.57
2023-04-15T07:04:40.277Z,25.83
2023-04-15T07:07:08.196Z,27.50
2023-04-15T07:09:34.963Z,23.40
2023-04-15T07:12:02.016Z,20.93
2023-04-15T07:14:29.496Z,24.53
2023-04-15T07:16:56.573Z,21.70
2023-04-15T07:19:23.524Z,20.20
2023-04-15T07:21:50.554Z,23.20
2023-04-15T07:24:18.990Z,26.90
2023-04-15T07:26:46.463Z,23.37
2023-04-15T07:29:13.265Z,23.10
2023-04-15T07:31:40.732Z,26.67
2023-04-15T07:34:07.760Z,23.07
2023-04-15T07:36:35.311Z,26.57
2023-04-15T07:39:03.687Z,26.07
2023-04-15T07:41:31.600Z,22.70
2023-04-15T07:43:58.455Z,25.60
2023-04-15T07:46:27.337Z,22.53
2023-04-15T07:48:54.363Z,20.95
2023-04-15T07:51:21.881Z,25.03
2023-04-15T07:53:50.379Z,21.07
2023-04-15T07:56:17.403Z,23.40
2023-04-15T07:58:44.070Z,24.67
2023-04-15T08:01:11.660Z,21.40
2023-04-15T08:03:39.530Z,24.10
2023-04-15T08:06:06.680Z,23.25
2023-04-15T08:08:33.420Z,21.57
2023-04-15T08:11:00.685Z,22.17
2023-04-15T08:13:27.953Z,21.87
2023-04-15T08:16:21.248Z,22.90
2023-04-15T08:18:49.603Z,25.27
2023-04-15T08:21:18.796Z,23.23
2023-04-15T08:23:47.488Z,21.77
2023-04-15T08:26:15.057Z,21.10
2023-04-15T08:28:42.899Z,21.27
2023-04-15T08:31:10.174Z,27.20
2023-04-15T08:33:37.011Z,23.73
2023-04-15T08:36:04.660Z,24.02
2023-04-15T08:38:31.821Z,19.73
2023-04-15T08:41:03.669Z,19.73
2023-04-15T08:43:35.260Z,26.33
2023-04-15T08:46:02.469Z,23.42
2023-04-15T08:48:32.553Z,18.20
2023-04-15T08:51:00.347Z,21.17
2023-04-15T08:53:29.729Z,23.08
2023-04-15T08:55:58.617Z,21.20
2023-04-15T08:58:26.158Z,20.70
2023-04-15T09:00:53.301Z,22.10
2023-04-15T09:03:21.856Z,25.03
2023-04-15T09:05:51.457Z,21.63
2023-04-15T09:08:20.087Z,23.73
2023-04-15T09:10:47.197Z,25.30
2023-04-15T09:13:14.104Z,17.50
2023-04-15T09:15:41.555Z,20.58
2023-04-15T09:18:08.342Z,22.55
2023-04-15T09:20:42.645Z,21.92
2023-04-15T09:23:17.596Z,25.10
2023-04-15T09:25:45.394Z,25.67
2023-04-15T09:28:12.285Z,24.85
2023-04-15T09:30:39.373Z,21.58
2023-04-15T09:33:08.442Z,21.48
2023-04-15T09:35:36.783Z,21.88
2023-04-15T09:38:09.822Z,20.55
2023-04-15T09:40:39.519Z,33.30
2023-04-15T09:43:07.909Z,23.27
2023-04-15T09:45:36.462Z,43.97
2023-04-15T09:48:17.491Z,22.42
2023-04-15T09:50:45.137Z,21.70
2023-04-15T09:53:16.540Z,25.33
2023-04-15T09:55:51.233Z,23.92
2023-04-15T09:58:26.710Z,22.50
2023-04-15T10:00:56.505Z,19.98
2023-04-15T10:03:28.992Z,19.67
2023-04-15T10:05:57.561Z,24.20
2023-04-15T10:08:27.920Z,22.15
2023-04-15T10:10:55.493Z,25.70
2023-04-15T10:13:24.873Z,23.55
2023-04-15T10:16:07.171Z,23.70
2023-04-15T10:18:42.871Z,20.52
2023-04-15T10:21:10.258Z,24.33
2023-04-15T10:23:38.364Z,20.85
2023-04-15T10:26:06.177Z,23.90
2023-04-15T10:28:33.040Z,22.83
2023-04-15T10:31:01.548Z,26.20
2023-04-15T10:33:29.215Z,21.57
2023-04-15T10:35:56.916Z,22.08
2023-04-15T10:38:36.004Z,23.87
2023-04-15T10:41:27.942Z,20.07
2023-04-15T10:43:57.844Z,21.05
2023-04-15T10:46:41.541Z,16.90
2023-04-15T10:49:13.155Z,18.10
2023-04-15T10:51:42.384Z,20.40
2023-04-15T10:54:14.991Z,19.63
2023-04-15T10:56:45.611Z,20.00
2023-04-15T10:59:12.467Z,19.10
2023-04-15T11:01:57.518Z,18.60
2023-04-15T11:04:57.537Z,22.73
2023-04-15T11:07:48.519Z,19.27
2023-04-15T11:10:18.323Z,16.30
2023-04-15T11:12:46.013Z,16.98
2023-04-15T11:15:43.138Z,16.43
2023-04-15T11:18:17.925Z,16.17
2023-04-15T11:20:47.261Z,16.38
2023-04-15T11:23:38.866Z,20.02
2023-04-15T11:26:09.410Z,19.63
2023-04-15T11:28:38.789Z,19.37
2023-04-15T11:31:12.326Z,15.67
2023-04-15T11:33:56.468Z,16.47
2023-04-15T11:36:28.001Z,16.03
2023-04-15T11:38:57.564Z,20.50
2023-04-15T11:41:24.541Z,19.93
2023-04-15T11:43:52.476Z,14.60
2023-04-15T11:46:19.664Z,13.93
2023-04-15T11:48:47.497Z,13.93
2023-04-15T11:51:14.528Z,18.30
2023-04-15T11:53:49.724Z,17.63
2023-04-15T11:56:22.162Z,19.80
2023-04-15T11:58:52.804Z,20.53
2023-04-15T12:01:19.775Z,15.20
2023-04-15T12:03:48.967Z,18.17
2023-04-15T12:06:19.014Z,21.37
2023-04-15T12:08:55.213Z,15.80
2023-04-15T12:11:21.959Z,16.70
2023-04-15T12:13:51.301Z,17.10
2023-04-15T12:16:19.398Z,19.30
2023-04-15T12:18:48.304Z,18.27
2023-04-15T12:21:15.475Z,19.23
2023-04-15T12:23:50.675Z,17.30
2023-04-15T12:26:19.136Z,28.90
2023-04-15T12:28:46.805Z,21.87
2023-04-15T12:31:14.612Z,18.30
2023-04-15T12:33:41.858Z,20.13
2023-04-15T12:36:09.463Z,21.53
2023-04-15T12:38:36.588Z,19.20
2023-04-15T12:41:03.383Z,19.98
2023-04-15T12:43:30.600Z,19.08
2023-04-15T12:45:57.449Z,18.73
2023-04-15T12:48:24.615Z,19.25
2023-04-15T12:50:51.392Z,18.27
2023-04-15T12:53:18.475Z,18.10
2023-04-15T12:55:45.365Z,17.10
2023-04-15T12:58:12.474Z,18.55
2023-04-15T13:00:39.336Z,18.73
2023-04-15T13:03:07.339Z,21.17
2023-04-15T13:05:34.397Z,25.03
2023-04-15T13:08:01.544Z,24.35
2023-04-15T13:10:29.288Z,29.13
2023-04-15T13:12:56.780Z,44.60
2023-04-15T13:15:23.975Z,69.35
2023-04-15T13:17:51.509Z,68.30
2023-04-15T13:20:18.626Z,45.28
2023-04-15T13:22:46.234Z,40.95
2023-04-15T13:25:12.949Z,19.83
2023-04-15T13:27:39.940Z,30.05
2023-04-15T13:30:07.693Z,23.65
2023-04-15T13:32:34.772Z,17.90
2023-04-15T13:35:01.749Z,15.75
2023-04-15T13:37:30.520Z,17.92
2023-04-15T13:39:58.335Z,15.40
2023-04-15T13:42:25.566Z,15.70
2023-04-15T13:44:52.270Z,16.73
2023-04-15T13:47:19.702Z,15.50
2023-04-15T13:49:46.509Z,16.47
2023-04-15T13:52:13.718Z,13.02
2023-04-15T13:54:40.490Z,13.23
2023-04-15T13:57:07.599Z,19.02
2023-04-15T13:59:37.561Z,23.33
2023-04-15T14:02:04.874Z,31.63
2023-04-15T14:04:32.299Z,25.27
2023-04-15T14:06:59.402Z,20.33
2023-04-15T14:09:28.082Z,19.88
2023-04-15T14:11:55.163Z,20.50
2023-04-15T14:14:21.993Z,20.03
2023-04-15T14:16:49.226Z,15.98
2023-04-15T14:19:16.188Z,14.00
2023-04-15T14:21:43.227Z,15.63
2023-04-15T14:24:10.614Z,13.60
2023-04-15T14:26:37.615Z,13.23
2023-04-15T14:29:04.574Z,13.83
2023-04-15T14:31:31.713Z,14.98
2023-04-15T14:33:58.459Z,14.50
2023-04-15T14:36:26.004Z,13.38
2023-04-15T14:38:52.872Z,12.57
2023-04-15T14:41:20.046Z,14.82
2023-04-15T14:43:46.806Z,14.68
2023-04-15T14:46:14.543Z,13.55
2023-04-15T14:48:42.460Z,12.65
2023-04-15T14:51:09.716Z,13.93
2023-04-15T14:53:36.430Z,13.70
2023-04-15T14:56:03.693Z,12.57
2023-04-15T14:58:30.422Z,13.43
2023-04-15T15:00:57.484Z,11.47
2023-04-15T15:03:24.375Z,14.68
2023-04-15T15:05:51.838Z,11.77
2023-04-15T15:08:18.700Z,15.65
2023-04-15T15:10:48.920Z,14.63
2023-04-15T15:13:17.364Z,11.60
2023-04-15T15:15:44.625Z,14.25
2023-04-15T15:18:11.617Z,12.65
2023-04-15T15:20:38.744Z,11.90
2023-04-15T15:23:05.456Z,12.47
2023-04-15T15:25:32.545Z,11.27
2023-04-15T15:27:59.568Z,12.20
2023-04-15T15:30:26.606Z,12.83
2023-04-15T15:32:53.473Z,11.63
2023-04-15T15:35:22.257Z,13.20
2023-04-15T15:37:49.046Z,11.95
2023-04-15T15:40:16.145Z,12.18
2023-04-15T15:42:43.065Z,11.20
2023-04-15T15:45:10.463Z,11.95
2023-04-15T15:47:37.365Z,13.50
2023-04-15T15:50:06.132Z,13.77
2023-04-15T15:52:33.136Z,15.02
2023-04-15T15:55:00.350Z,13.65
2023-04-15T15:57:27.055Z,14.10
2023-04-15T16:00:04.788Z,14.18
2023-04-15T16:03:04.505Z,14.30
2023-04-15T16:05:24.426Z,15.27
2023-04-15T16:07:51.167Z,14.63
2023-04-15T16:10:18.227Z,16.30
2023-04-15T16:12:45.095Z,13.70
2023-04-15T16:15:12.629Z,14.23
2023-04-15T16:17:39.430Z,13.00
2023-04-15T16:20:07.116Z,13.30
2023-04-15T16:22:35.062Z,17.70
2023-04-15T16:25:02.486Z,16.58
2023-04-15T16:27:29.401Z,14.67
2023-04-15T16:29:56.479Z,14.00
2023-04-15T16:32:23.316Z,13.68
2023-04-15T16:34:50.560Z,14.55
2023-04-15T16:37:17.265Z,14.20
2023-04-15T16:39:44.347Z,12.90
2023-04-15T16:42:11.222Z,14.57
2023-04-15T16:44:38.773Z,13.80
2023-04-15T16:47:05.697Z,13.73
2023-04-15T16:49:34.865Z,14.73
2023-04-15T16:52:02.503Z,14.07
2023-04-15T16:54:29.786Z,12.80
2023-04-15T16:56:58.603Z,11.90
2023-04-15T16:59:25.965Z,12.03
2023-04-15T17:01:54.232Z,15.57
2023-04-15T17:04:21.509Z,14.27
2023-04-15T17:06:48.527Z,12.77
2023-04-15T17:09:15.525Z,14.50
2023-04-15T17:11:44.494Z,13.93
2023-04-15T17:14:11.864Z,13.20
2023-04-15T17:16:38.635Z,15.33
2023-04-15T17:19:06.417Z,13.80
2023-04-15T17:21:33.237Z,15.30
2023-04-15T17:24:00.475Z,13.80
2023-04-15T17:26:27.393Z,15.13
2023-04-15T17:28:54.405Z,13.87
2023-04-15T17:31:21.282Z,17.30
2023-04-15T17:34:00.494Z,15.53
2023-04-15T17:36:34.728Z,14.77
2023-04-15T17:39:01.759Z,13.73
2023-04-15T17:41:28.613Z,13.90
2023-04-15T17:43:55.716Z,12.93
2023-04-15T17:46:22.713Z,13.93
2023-04-15T17:48:49.925Z,15.23
2023-04-15T17:51:17.075Z,16.00
2023-04-15T17:53:44.094Z,16.03
2023-04-15T17:56:11.031Z,14.17
2023-04-15T17:58:39.276Z,16.37
2023-04-15T18:01:06.645Z,16.38
2023-04-15T18:03:33.749Z,16.37
2023-04-15T18:06:01.362Z,14.87
2023-04-15T18:08:28.979Z,13.73
2023-04-15T18:10:56.412Z,16.23
2023-04-15T18:13:23.601Z,17.90
2023-04-15T18:15:51.427Z,16.13
2023-04-15T18:18:18.478Z,17.73
2023-04-15T18:20:45.449Z,14.37
2023-04-15T18:23:14.351Z,16.43
2023-04-15T18:25:43.462Z,15.47
2023-04-15T18:28:10.694Z,16.80
2023-04-15T18:30:37.606Z,17.20
2023-04-15T18:33:04.877Z,16.57
2023-04-15T18:35:31.817Z,17.90
2023-04-15T18:37:59.121Z,14.20
2023-04-15T18:40:26.121Z,14.33
2023-04-15T18:42:53.288Z,14.37
2023-04-15T18:45:20.582Z,14.83
2023-04-15T18:47:48.335Z,15.47
2023-04-15T18:50:15.068Z,17.20
2023-04-15T18:52:42.245Z,17.37
2023-04-15T18:55:08.978Z,19.73
2023-04-15T18:57:36.268Z,19.93
2023-04-15T19:00:04.559Z,15.60
2023-04-15T19:02:31.710Z,17.40
2023-04-15T19:04:58.637Z,13.47
2023-04-15T19:07:25.806Z,12.20
2023-04-15T19:09:53.339Z,16.00
2023-04-15T19:12:20.337Z,15.40
2023-04-15T19:14:47.127Z,16.03
2023-04-15T19:17:14.309Z,16.77
2023-04-15T19:19:41.154Z,16.87
2023-04-15T19:22:08.702Z,13.93
2023-04-15T19:24:36.532Z,15.23
2023-04-15T19:27:03.688Z,13.60
2023-04-15T19:29:30.535Z,14.57
2023-04-15T19:31:57.604Z,12.27
2023-04-15T19:34:25.052Z,13.67
2023-04-15T19:36:52.108Z,15.93
2023-04-15T19:39:19.689Z,12.90
2023-04-15T19:41:47.229Z,12.87
2023-04-15T19:44:15.138Z,14.20
2023-04-15T19:46:44.700Z,15.18
2023-04-15T19:49:11.606Z,13.50
2023-04-15T19:51:38.556Z,12.93
2023-04-15T19:54:05.441Z,13.93
2023-04-15T19:56:34.292Z,12.40
2023-04-15T19:59:01.993Z,11.90
2023-04-15T20:01:29.261Z,9.93
2023-04-15T20:03:56.249Z,10.07
2023-04-15T20:06:23.544Z,9.63
2023-04-15T20:08:50.391Z,9.37
2023-04-15T20:11:17.480Z,10.07
2023-04-15T20:13:44.332Z,12.73
2023-04-15T20:16:12.339Z,16.10
2023-04-15T20:18:39.141Z,8.80
2023-04-15T20:21:06.332Z,8.77
2023-04-15T20:23:35.148Z,10.50
2023-04-15T20:26:02.154Z,8.93
2023-04-15T20:28:28.882Z,11.27
2023-04-15T20:30:56.012Z,11.10
2023-04-15T20:33:22.866Z,8.87
2023-04-15T20:35:50.002Z,22.83
2023-04-15T20:38:16.999Z,9.30
2023-04-15T20:40:44.057Z,10.07
2023-04-15T20:43:10.848Z,10.73
2023-04-15T20:45:38.994Z,14.37
2023-04-15T20:48:06.389Z,17.23
2023-04-15T20:50:33.461Z,19.97
2023-04-15T20:53:00.435Z,19.33
2023-04-15T20:55:29.593Z,16.03
2023-04-15T20:57:58.298Z,13.23
2023-04-15T21:00:25.364Z,17.57
2023-04-15T21:02:52.279Z,14.97
2023-04-15T21:05:19.408Z,12.80
2023-04-15T21:07:46.324Z,15.30
2023-04-15T21:10:13.342Z,14.37
2023-04-15T21:12:41.126Z,19.30
2023-04-15T21:15:09.107Z,17.77
2023-04-15T21:17:35.870Z,25.37
2023-04-15T21:20:03.411Z,20.40
2023-04-15T21:22:30.236Z,12.77
2023-04-15T21:24:57.439Z,17.50
2023-04-15T21:27:25.655Z,13.33
2023-04-15T21:29:52.739Z,17.23
2023-04-15T21:32:19.500Z,13.53
2023-04-15T21:34:46.533Z,15.27
2023-04-15T21:37:13.232Z,17.03
2023-04-15T21:39:40.241Z,13.73
2023-04-15T21:42:07.163Z,17.67
2023-04-15T21:44:34.158Z,17.20
2023-04-15T21:47:00.920Z,14.23
2023-04-15T21:49:27.914Z,12.27
2023-04-15T21:51:54.626Z,12.10
2023-04-15T21:54:21.737Z,13.00
2023-04-15T21:56:49.826Z,12.27
2023-04-15T21:59:16.838Z,12.53
2023-04-15T22:01:43.570Z,18.00
2023-04-15T22:04:10.990Z,9.67
2023-04-15T22:06:38.165Z,10.73
2023-04-15T22:09:05.210Z,10.43
2023-04-15T22:11:32.418Z,8.30
2023-04-15T22:13:59.749Z,10.10
2023-04-15T22:16:26.968Z,8.10
2023-04-15T22:18:54.808Z,11.07
2023-04-15T22:21:21.894Z,9.43
2023-04-15T22:23:49.420Z,9.47
2023-04-15T22:26:16.192Z,9.33
2023-04-15T22:28:43.264Z,10.27
2023-04-15T22:31:10.134Z,8.47
2023-04-15T22:33:37.430Z,8.37
2023-04-15T22:36:04.163Z,10.83
2023-04-15T22:38:31.435Z,10.20
2023-04-15T22:40:58.512Z,7.77
2023-04-15T22:43:26.069Z,9.87
2023-04-15T22:45:54.799Z,9.67
2023-04-15T22:48:22.589Z,8.60
2023-04-15T22:50:49.717Z,10.57
2023-04-15T22:53:17.488Z,11.13
2023-04-15T22:55:46.649Z,12.17
2023-04-15T22:58:14.241Z,10.53
2023-04-15T23:00:41.167Z,12.40
2023-04-15T23:03:08.432Z,10.03
2023-04-15T23:05:35.462Z,9.73
2023-04-15T23:08:02.947Z,12.67
2023-04-15T23:10:29.707Z,11.00
2023-04-15T23:12:56.690Z,12.17
2023-04-15T23:15:23.558Z,10.73
2023-04-15T23:17:50.799Z,11.07
2023-04-15T23:20:17.629Z,10.20
2023-04-15T23:22:45.389Z,9.13
2023-04-15T23:25:12.150Z,10.00
2023-04-15T23:27:39.221Z,10.10
2023-04-15T23:30:06.955Z,11.17
2023-04-15T23:32:34.174Z,10.20
2023-04-15T23:35:01.016Z,10.93
2023-04-15T23:37:30.332Z,10.57
2023-04-15T23:39:57.142Z,10.53
2023-04-15T23:42:24.702Z,11.23
2023-04-15T23:44:51.505Z,11.13
2023-04-15T23:47:18.625Z,11.60
2023-04-15T23:49:45.420Z,10.83
2023-04-15T23:52:12.429Z,10.57
2023-04-15T23:54:39.809Z,9.97
2023-04-15T23:57:06.790Z,12.30
2023-04-15T23:59:33.734Z,10.37
